createdAt,value
2018-09-24T00:35:04.429Z,99.90
2018-09-24T00:37:32.066Z,99.90
2018-09-24T00:39:59.745Z,99.90
2018-09-24T00:42:27.368Z,99.90
2018-09-24T00:44:55.035Z,99.90
2018-09-24T00:47:22.661Z,99.90
2018-09-24T00:49:50.314Z,99.90
2018-09-24T00:52:17.948Z,99.90
2018-09-24T00:54:45.565Z,99.90
2018-09-24T00:57:13.237Z,99.90
2018-09-24T00:59:40.908Z,99.90
2018-09-24T01:02:08.531Z,99.90
2018-09-24T01:04:36.223Z,99.90
2018-09-24T01:07:03.896Z,99.90
2018-09-24T01:09:31.541Z,99.90
2018-09-24T01:11:59.209Z,99.90
2018-09-24T01:14:28.774Z,99.90
2018-09-24T01:16:56.510Z,99.90
2018-09-24T01:19:24.176Z,99.90
2018-09-24T01:21:51.848Z,99.90
2018-09-24T01:24:19.480Z,99.90
2018-09-24T01:26:47.145Z,99.90
2018-09-24T01:29:14.826Z,99.90
2018-09-24T01:31:42.494Z,99.90
2018-09-24T01:34:10.203Z,99.90
2018-09-24T01:36:37.849Z,99.90
2018-09-24T01:39:06.252Z,99.90
2018-09-24T01:41:33.892Z,99.90
2018-09-24T01:44:01.629Z,99.90
2018-09-24T01:46:29.244Z,99.90
2018-09-24T01:48:56.873Z,99.90
2018-09-24T01:51:34.310Z,99.90
2018-09-24T01:54:02.140Z,99.90
2018-09-24T01:56:29.824Z,99.90
2018-09-24T01:58:57.480Z,99.90
2018-09-24T02:01:25.206Z,99.90
2018-09-24T02:03:52.844Z,99.90
2018-09-24T02:06:20.492Z,99.90
2018-09-24T02:08:48.124Z,99.90
2018-09-24T02:11:15.883Z,99.90
2018-09-24T02:13:47.488Z,99.90
2018-09-24T02:16:15.165Z,99.90
2018-09-24T02:18:43.056Z,99.90
2018-09-24T02:21:10.694Z,99.90
2018-09-24T02:23:38.347Z,99.90
2018-09-24T02:26:06.126Z,99.90
2018-09-24T02:28:33.785Z,99.90
2018-09-24T02:31:01.453Z,99.90
2018-09-24T02:33:29.115Z,99.90
2018-09-24T02:35:56.732Z,99.90
2018-09-24T02:38:24.390Z,99.90
2018-09-24T02:40:52.046Z,99.90
2018-09-24T02:43:23.127Z,99.90
2018-09-24T02:45:51.316Z,99.90
2018-09-24T02:48:18.947Z,99.90
2018-09-24T02:50:46.603Z,99.90
2018-09-24T02:53:14.291Z,99.90
2018-09-24T02:55:41.977Z,99.90
2018-09-24T02:58:15.059Z,99.90
2018-09-24T03:00:43.116Z,99.90
2018-09-24T03:03:11.299Z,99.90
2018-09-24T03:05:39.097Z,99.90
2018-09-24T03:08:08.476Z,99.90
2018-09-24T03:10:36.564Z,99.90
2018-09-24T03:13:04.197Z,99.90
2018-09-24T03:15:37.204Z,99.90
2018-09-24T03:18:05.260Z,99.90
2018-09-24T03:40:20.820Z,99.90
2018-09-24T03:42:50.512Z,99.90
2018-09-24T07:52:31.715Z,99.90
2018-09-24T07:55:04.882Z,99.90
2018-09-24T08:00:11.448Z,99.90
2018-09-24T08:02:44.678Z,99.90
2018-09-24T08:05:17.961Z,99.90
2018-09-24T08:07:51.148Z,99.90
2018-09-24T08:10:24.324Z,99.90
2018-09-24T08:12:57.575Z,99.90
2018-09-24T08:18:03.995Z,99.90
2018-09-24T08:20:37.378Z,99.90
2018-09-24T11:04:10.366Z,93.70
2018-09-24T11:06:44.004Z,93.50
2018-09-24T12:00:26.304Z,94.80
2018-09-24T12:02:59.659Z,96.10
2018-09-24T12:05:32.900Z,96.30
2018-09-24T12:08:06.376Z,96.70
2018-09-24T12:10:39.694Z,97.20
2018-09-24T12:13:12.934Z,95.70
2018-09-24T12:15:46.370Z,95.80
2018-09-24T12:18:19.830Z,95.90
2018-09-24T12:25:59.314Z,93.70
2018-09-24T12:28:32.656Z,93.80
2018-09-24T13:11:57.490Z,92.10
2018-09-24T13:17:05.956Z,89.10
2018-09-24T13:19:39.352Z,83.70
2018-09-24T13:22:12.812Z,82.60
2018-09-24T13:24:46.153Z,79.80
2018-09-24T13:27:19.565Z,79.30
2018-09-24T13:29:52.772Z,76.00
2018-09-24T13:32:26.024Z,73.30
2018-09-24T13:34:59.428Z,72.20
2018-09-24T13:40:06.320Z,72.60
2018-09-24T13:42:39.575Z,75.10
2018-09-24T13:45:13.016Z,74.70
2018-09-24T13:47:46.558Z,76.40
2018-09-24T13:50:20.002Z,75.70
2018-09-24T13:52:53.245Z,76.10
2018-09-24T13:55:27.108Z,76.70
2018-09-24T14:03:07.315Z,74.50
2018-09-24T14:05:41.001Z,72.20
2018-09-24T14:08:14.385Z,69.30
2018-09-24T14:10:47.793Z,66.80
2018-09-24T14:13:21.239Z,66.00
2018-09-24T14:15:54.887Z,66.20
2018-09-24T14:18:28.155Z,65.50
2018-09-24T14:23:34.424Z,57.50
2018-09-24T14:26:07.787Z,56.30
2018-09-24T14:28:40.987Z,55.30
2018-09-24T14:31:14.448Z,53.80
2018-09-24T14:33:47.972Z,55.40
2018-09-24T14:36:21.645Z,58.40
2018-09-24T14:38:54.826Z,61.50
2018-09-24T14:41:29.389Z,66.60
2018-09-24T14:44:02.738Z,68.60
2018-09-24T14:52:08.574Z,62.80
2018-09-24T14:54:43.214Z,60.60
2018-09-24T14:59:49.816Z,58.40
2018-09-24T15:02:23.076Z,57.50
2018-09-24T15:04:56.265Z,58.10
2018-09-24T15:07:29.713Z,61.80
2018-09-24T15:10:03.013Z,63.80
2018-09-24T15:12:36.406Z,68.30
2018-09-24T15:15:09.829Z,73.50
2018-09-24T15:17:43.048Z,90.50
2018-09-24T15:20:16.363Z,93.80
2018-09-24T15:25:22.857Z,94.10
2018-09-24T15:27:56.254Z,95.70
2018-09-24T15:30:29.477Z,93.90
2018-09-24T15:33:02.711Z,95.10
2018-09-24T15:35:36.297Z,95.00
2018-09-24T15:38:09.679Z,95.50
2018-09-24T15:40:42.993Z,93.00
2018-09-24T15:43:16.138Z,84.60
2018-09-24T15:45:49.521Z,78.00
2018-09-24T15:48:22.840Z,69.50
2018-09-24T15:50:56.126Z,60.60
2018-09-24T15:53:29.410Z,58.20
2018-09-24T15:56:02.889Z,56.70
2018-09-24T15:58:38.717Z,58.10
2018-09-24T16:01:12.254Z,58.80
2018-09-24T16:03:45.625Z,64.10
2018-09-24T16:06:18.798Z,70.40
2018-09-24T16:08:52.178Z,78.60
2018-09-24T16:11:25.341Z,86.70
2018-09-24T16:14:05.478Z,88.70
2018-09-24T16:19:12.149Z,94.40
2018-09-24T16:21:45.452Z,96.30
2018-09-24T16:24:18.857Z,95.90
2018-09-24T16:26:52.277Z,96.00
2018-09-24T16:29:25.657Z,97.80
2018-09-24T16:31:58.961Z,98.30
2018-09-24T16:34:32.164Z,99.80
2018-09-24T16:39:38.603Z,99.00
2018-09-24T16:42:11.820Z,99.10
2018-09-24T16:47:18.638Z,99.30
2018-09-24T16:49:52.178Z,98.90
2018-09-24T16:52:25.415Z,98.90
2018-09-24T16:54:58.828Z,99.90
2018-09-24T16:57:32.041Z,99.90
2018-09-24T17:02:39.733Z,99.90
2018-09-24T17:07:46.353Z,99.90
2018-09-24T17:10:19.751Z,99.70
2018-09-24T17:12:53.081Z,99.50
2018-09-24T17:17:59.420Z,99.90
2018-09-24T17:20:32.664Z,99.90
2018-09-24T17:23:05.872Z,99.90
2018-09-24T17:25:39.040Z,99.90
2018-09-24T17:28:12.477Z,99.90
2018-09-24T17:30:45.696Z,99.90
2018-09-24T17:33:18.907Z,99.90
2018-09-24T17:35:52.125Z,99.90
2018-09-24T17:38:25.426Z,99.90
2018-09-24T17:43:31.897Z,99.90
2018-09-24T17:46:05.839Z,99.90
2018-09-24T17:48:39.010Z,99.90
2018-09-24T17:53:45.384Z,99.90
2018-09-24T17:58:51.893Z,99.90
2018-09-24T18:01:25.264Z,99.90
2018-09-24T18:03:59.023Z,99.90
2018-09-24T18:06:32.469Z,99.90
2018-09-24T18:09:05.817Z,99.90
2018-09-24T18:11:39.023Z,99.90
2018-09-24T18:14:12.425Z,99.90
2018-09-24T18:21:52.047Z,99.90
2018-09-24T18:24:25.511Z,99.90
2018-09-24T18:26:58.677Z,99.90
2018-09-24T18:34:39.416Z,99.90
2018-09-24T18:37:12.898Z,99.90
2018-09-24T18:39:46.281Z,99.90
2018-09-24T18:42:19.618Z,99.90
2018-09-24T18:44:53.052Z,99.90
2018-09-24T18:47:26.310Z,99.90
2018-09-24T18:50:01.056Z,99.90
2018-09-24T18:52:34.496Z,99.90
2018-09-24T18:55:08.040Z,99.90
2018-09-24T19:00:14.623Z,99.90
2018-09-24T19:02:48.073Z,99.90
2018-09-24T19:07:54.629Z,99.90
2018-09-24T19:10:28.114Z,99.90
2018-09-24T19:13:01.320Z,99.90
2018-09-24T19:15:34.739Z,99.90
2018-09-24T19:18:08.127Z,99.90
2018-09-24T19:20:41.546Z,99.90
2018-09-24T19:23:14.948Z,99.90
2018-09-24T19:25:48.415Z,99.90
2018-09-24T19:28:21.748Z,99.90
2018-09-24T19:30:55.136Z,99.90
2018-09-24T19:33:31.132Z,99.90
2018-09-24T19:36:04.508Z,99.90
2018-09-24T19:38:37.662Z,99.90
2018-09-24T19:41:11.473Z,99.90
2018-09-24T19:43:44.713Z,99.90
2018-09-24T19:46:18.136Z,99.90
2018-09-24T19:48:51.587Z,99.90
2018-09-24T19:51:24.849Z,99.90
2018-09-24T19:53:58.224Z,99.90
2018-09-24T19:56:31.357Z,99.90
2018-09-24T19:59:04.810Z,99.90
2018-09-24T20:01:38.017Z,99.90
2018-09-24T20:04:11.414Z,99.90
2018-09-24T20:09:17.890Z,99.90
2018-09-24T20:11:51.134Z,99.90
2018-09-24T20:14:24.405Z,99.90
2018-09-24T20:16:57.759Z,99.90
2018-09-24T20:19:31.336Z,99.90
2018-09-24T20:22:04.609Z,99.90
2018-09-24T20:24:37.810Z,99.90
2018-09-24T20:27:11.306Z,99.90
2018-09-24T20:29:44.539Z,99.90
2018-09-24T20:32:17.784Z,99.90
2018-09-24T20:34:51.083Z,99.90
2018-09-24T20:37:24.394Z,99.90
2018-09-24T20:39:57.563Z,99.90
2018-09-24T20:42:30.872Z,99.90
2018-09-24T20:45:04.145Z,99.90
2018-09-24T20:47:37.478Z,99.90
2018-09-24T20:50:10.747Z,99.90
2018-09-24T20:52:44.016Z,99.90
2018-09-24T20:55:17.354Z,99.90
2018-09-24T20:57:50.586Z,99.90
2018-09-24T21:00:27.885Z,99.90
2018-09-24T21:03:01.220Z,99.90
2018-09-24T21:08:07.845Z,99.90
2018-09-24T21:10:41.211Z,99.90
2018-09-24T21:13:14.631Z,99.90
2018-09-24T21:15:48.031Z,99.90
2018-09-24T21:21:01.463Z,99.90
2018-09-24T21:26:07.806Z,99.90
2018-09-24T21:28:41.101Z,99.90
2018-09-24T21:31:14.562Z,99.90
2018-09-24T21:33:47.961Z,99.90
2018-09-24T21:36:21.199Z,99.90
2018-09-24T21:41:27.450Z,99.90
2018-09-24T21:46:34.026Z,99.90
2018-09-24T21:49:07.227Z,99.90
2018-09-24T21:51:40.357Z,99.90
2018-09-24T21:54:13.622Z,99.90
2018-09-24T21:56:46.975Z,99.90
2018-09-24T21:59:20.270Z,99.90
2018-09-24T22:04:26.595Z,99.90
2018-09-24T22:06:59.730Z,99.90
2018-09-24T22:09:32.950Z,99.90
2018-09-24T22:12:06.185Z,99.90
2018-09-24T22:14:39.327Z,99.90
2018-09-24T22:17:12.555Z,99.90
2018-09-24T22:19:45.786Z,99.90
2018-09-24T22:22:19.015Z,99.90
2018-09-24T22:24:57.021Z,99.90
2018-09-24T22:30:03.466Z,99.90
2018-09-24T22:32:36.690Z,99.90
2018-09-24T22:35:10.002Z,99.90
2018-09-24T22:37:43.166Z,99.90
2018-09-24T22:40:16.433Z,99.90
2018-09-24T22:42:49.709Z,99.90
2018-09-24T22:45:23.115Z,99.90
2018-09-24T22:48:06.810Z,99.90
2018-09-24T22:50:40.145Z,99.90
2018-09-24T22:53:13.414Z,99.90
2018-09-24T22:55:46.674Z,99.90
2018-09-24T22:58:20.019Z,99.90
2018-09-24T23:00:53.425Z,99.90
2018-09-24T23:03:26.699Z,99.90
2018-09-24T23:06:00.028Z,99.90
2018-09-24T23:08:33.204Z,99.90
2018-09-24T23:11:06.782Z,99.90
2018-09-24T23:13:40.132Z,99.90
2018-09-24T23:16:13.295Z,99.90
2018-09-24T23:18:46.443Z,99.90
2018-09-24T23:21:19.759Z,99.90
2018-09-24T23:26:26.253Z,99.90
2018-09-24T23:28:59.349Z,99.90
2018-09-24T23:31:32.568Z,99.90
2018-09-24T23:34:05.734Z,99.90
2018-09-24T23:36:39.013Z,99.90
2018-09-24T23:39:13.453Z,99.90
2018-09-24T23:41:46.597Z,99.90
2018-09-24T23:46:52.956Z,99.90
2018-09-24T23:52:00.209Z,99.90
2018-09-24T23:54:33.407Z,99.90
2018-09-24T23:57:06.720Z,99.90
2018-09-24T23:59:39.926Z,99.90
